sensor_id;sensor_type;location;lat;lon;timestamp;temperature;humidity
50738;DHT22;36703;48.154;17.126;2022-10-22T07:11:44;16.00;45.60
50738;DHT22;36703;48.154;17.126;2022-10-22T07:15:50;16.10;45.30
50738;DHT22;36703;48.154;17.126;2022-10-22T07:19:53;16.30;45.30
50738;DHT22;36703;48.154;17.126;2022-10-22T07:23:54;16.40;45.00
50738;DHT22;36703;48.154;17.126;2022-10-22T07:27:56;16.50;45.00
50738;DHT22;36703;48.154;17.126;2022-10-22T07:31:57;16.50;45.00
50738;DHT22;36703;48.154;17.126;2022-10-22T07:36:00;16.50;44.90
50738;DHT22;36703;48.154;17.126;2022-10-22T07:40:03;16.60;44.80
50738;DHT22;36703;48.154;17.126;2022-10-22T07:44:05;16.70;44.40
50738;DHT22;36703;48.154;17.126;2022-10-22T07:48:06;16.70;44.60
50738;DHT22;36703;48.154;17.126;2022-10-22T07:52:08;16.70;45.20
50738;DHT22;36703;48.154;17.126;2022-10-22T07:56:09;16.70;44.70
50738;DHT22;36703;48.154;17.126;2022-10-22T08:00:11;16.70;44.70
50738;DHT22;36703;48.154;17.126;2022-10-22T08:04:15;16.60;44.70
50738;DHT22;36703;48.154;17.126;2022-10-22T08:08:16;16.50;44.80
50738;DHT22;36703;48.154;17.126;2022-10-22T08:12:18;16.50;44.90
50738;DHT22;36703;48.154;17.126;2022-10-22T08:16:19;16.50;44.90
50738;DHT22;36703;48.154;17.126;2022-10-22T08:20:20;16.60;44.80
50738;DHT22;36703;48.154;17.126;2022-10-22T08:24:22;16.60;44.80
50738;DHT22;36703;48.154;17.126;2022-10-22T08:28:23;16.60;44.70
50738;DHT22;36703;48.154;17.126;2022-10-22T08:32:24;16.60;44.80
50738;DHT22;36703;48.154;17.126;2022-10-22T08:36:26;16.60;44.80
50738;DHT22;36703;48.154;17.126;2022-10-22T08:40:29;16.60;44.80
50738;DHT22;36703;48.154;17.126;2022-10-22T08:48:42;16.70;44.80
50738;DHT22;36703;48.154;17.126;2022-10-22T08:52:45;16.70;44.80
50738;DHT22;36703;48.154;17.126;2022-10-22T08:57:36;16.70;44.80
50738;DHT22;36703;48.154;17.126;2022-10-22T09:01:20;16.80;44.80
50738;DHT22;36703;48.154;17.126;2022-10-22T09:09:49;16.70;45.00
50738;DHT22;36703;48.154;17.126;2022-10-22T09:13:52;16.70;45.20
50738;DHT22;36703;48.154;17.126;2022-10-22T09:26:24;16.80;45.30
50738;DHT22;36703;48.154;17.126;2022-10-22T09:30:28;16.80;45.30
50738;DHT22;36703;48.154;17.126;2022-10-22T09:34:31;16.80;45.40
50738;DHT22;36703;48.154;17.126;2022-10-22T09:38:35;16.80;46.10
50738;DHT22;36703;48.154;17.126;2022-10-22T09:42:40;16.80;45.50
50738;DHT22;36703;48.154;17.126;2022-10-22T09:46:43;16.80;45.50
50738;DHT22;36703;48.154;17.126;2022-10-22T09:50:47;16.80;45.70
50738;DHT22;36703;48.154;17.126;2022-10-22T09:54:49;16.70;45.80
50738;DHT22;36703;48.154;17.126;2022-10-22T09:58:54;16.70;45.90
50738;DHT22;36703;48.154;17.126;2022-10-22T10:02:57;16.80;45.90
50738;DHT22;36703;48.154;17.126;2022-10-22T10:07:00;16.80;45.90
50738;DHT22;36703;48.154;17.126;2022-10-22T10:11:05;16.90;45.90
50738;DHT22;36703;48.154;17.126;2022-10-22T10:19:26;16.90;46.20
50738;DHT22;36703;48.154;17.126;2022-10-22T10:36:45;16.70;47.10
50738;DHT22;36703;48.154;17.126;2022-10-22T10:58:44;16.90;47.70
50738;DHT22;36703;48.154;17.126;2022-10-22T11:07:12;16.90;47.90
50738;DHT22;36703;48.154;17.126;2022-10-22T11:15:28;17.00;48.20
50738;DHT22;36703;48.154;17.126;2022-10-22T11:19:33;17.10;48.20
50738;DHT22;36703;48.154;17.126;2022-10-22T11:32:26;17.20;48.10
50738;DHT22;36703;48.154;17.126;2022-10-22T11:41:04;17.20;48.50
50738;DHT22;36703;48.154;17.126;2022-10-22T11:49:16;17.30;48.70
50738;DHT22;36703;48.154;17.126;2022-10-22T11:53:35;17.30;48.80
50738;DHT22;36703;48.154;17.126;2022-10-22T11:57:38;17.30;48.90
50738;DHT22;36703;48.154;17.126;2022-10-22T12:01:43;17.40;49.00
50738;DHT22;36703;48.154;17.126;2022-10-22T12:50:53;17.40;49.00
50738;DHT22;36703;48.154;17.126;2022-10-22T12:54:56;16.90;51.60
50738;DHT22;36703;48.154;17.126;2022-10-22T12:58:59;16.90;51.90
50738;DHT22;36703;48.154;17.126;2022-10-22T13:07:36;16.90;52.40
50738;DHT22;36703;48.154;17.126;2022-10-22T13:23:58;16.90;53.20
50738;DHT22;36703;48.154;17.126;2022-10-22T13:28:02;16.60;53.60
50738;DHT22;36703;48.154;17.126;2022-10-22T13:36:30;16.50;54.30
50738;DHT22;36703;48.154;17.126;2022-10-22T13:40:31;16.40;54.50
50738;DHT22;36703;48.154;17.126;2022-10-22T13:44:32;16.40;54.70
50738;DHT22;36703;48.154;17.126;2022-10-22T13:48:34;16.30;54.90
50738;DHT22;36703;48.154;17.126;2022-10-22T13:56:41;16.20;55.40
50738;DHT22;36703;48.154;17.126;2022-10-22T14:00:43;16.10;55.60
50738;DHT22;36703;48.154;17.126;2022-10-22T14:04:47;16.10;55.80
50738;DHT22;36703;48.154;17.126;2022-10-22T14:08:55;16.20;55.90
50738;DHT22;36703;48.154;17.126;2022-10-22T14:12:58;16.20;55.70
50738;DHT22;36703;48.154;17.126;2022-10-22T14:16:59;16.30;55.60
50738;DHT22;36703;48.154;17.126;2022-10-22T14:21:02;16.30;55.60
50738;DHT22;36703;48.154;17.126;2022-10-22T14:25:14;16.30;55.60
50738;DHT22;36703;48.154;17.126;2022-10-22T14:50:28;18.00;57.10
50738;DHT22;36703;48.154;17.126;2022-10-22T14:54:29;16.20;56.50
50738;DHT22;36703;48.154;17.126;2022-10-22T14:58:31;16.30;56.40
50738;DHT22;36703;48.154;17.126;2022-10-22T15:02:32;16.30;56.30
50738;DHT22;36703;48.154;17.126;2022-10-22T15:57:30;16.10;57.60
50738;DHT22;36703;48.154;17.126;2022-10-22T16:01:32;16.10;57.70
50738;DHT22;36703;48.154;17.126;2022-10-22T16:05:34;16.10;57.70
50738;DHT22;36703;48.154;17.126;2022-10-22T16:09:36;16.00;57.70
50738;DHT22;36703;48.154;17.126;2022-10-22T16:13:37;16.00;57.80
50738;DHT22;36703;48.154;17.126;2022-10-22T16:17:39;15.90;57.90
50738;DHT22;36703;48.154;17.126;2022-10-22T16:21:40;15.90;58.10
50738;DHT22;36703;48.154;17.126;2022-10-22T16:25:42;15.90;58.20
50738;DHT22;36703;48.154;17.126;2022-10-22T16:29:43;15.90;58.20
50738;DHT22;36703;48.154;17.126;2022-10-22T16:33:45;15.90;58.20
50738;DHT22;36703;48.154;17.126;2022-10-22T16:37:46;15.90;58.10
50738;DHT22;36703;48.154;17.126;2022-10-22T16:41:48;15.90;58.00
50738;DHT22;36703;48.154;17.126;2022-10-22T16:45:49;15.90;58.00
50738;DHT22;36703;48.154;17.126;2022-10-22T16:49:51;16.00;58.00
50738;DHT22;36703;48.154;17.126;2022-10-22T16:53:53;16.10;58.00
50738;DHT22;36703;48.154;17.126;2022-10-22T16:57:56;16.00;57.80
50738;DHT22;36703;48.154;17.126;2022-10-22T17:01:57;16.00;57.90
50738;DHT22;36703;48.154;17.126;2022-10-22T17:05:59;16.00;57.90
50738;DHT22;36703;48.154;17.126;2022-10-22T17:10:00;15.90;58.00
50738;DHT22;36703;48.154;17.126;2022-10-22T17:14:03;15.80;58.00
50738;DHT22;36703;48.154;17.126;2022-10-22T17:18:05;15.70;58.00
50738;DHT22;36703;48.154;17.126;2022-10-22T17:22:06;15.70;58.10
50738;DHT22;36703;48.154;17.126;2022-10-22T17:54:39;15.30;58.70
50738;DHT22;36703;48.154;17.126;2022-10-22T17:58:41;15.30;58.90
50738;DHT22;36703;48.154;17.126;2022-10-22T18:02:42;15.30;58.90
50738;DHT22;36703;48.154;17.126;2022-10-22T18:06:44;15.20;58.80
50738;DHT22;36703;48.154;17.126;2022-10-22T18:10:47;15.20;58.90
50738;DHT22;36703;48.154;17.126;2022-10-22T18:14:48;15.20;59.00
50738;DHT22;36703;48.154;17.126;2022-10-22T18:18:51;15.30;58.90
50738;DHT22;36703;48.154;17.126;2022-10-22T18:22:53;15.40;58.90
50738;DHT22;36703;48.154;17.126;2022-10-22T18:26:55;15.50;58.90
50738;DHT22;36703;48.154;17.126;2022-10-22T18:30:56;15.50;58.80
50738;DHT22;36703;48.154;17.126;2022-10-22T18:34:58;15.50;58.90
50738;DHT22;36703;48.154;17.126;2022-10-22T18:39:00;15.70;58.90
50738;DHT22;36703;48.154;17.126;2022-10-22T18:43:02;15.80;58.90
50738;DHT22;36703;48.154;17.126;2022-10-22T18:47:04;15.90;59.00
50738;DHT22;36703;48.154;17.126;2022-10-22T18:51:07;16.10;59.00
50738;DHT22;36703;48.154;17.126;2022-10-22T18:55:09;16.20;59.00
50738;DHT22;36703;48.154;17.126;2022-10-22T18:59:12;16.30;58.90
50738;DHT22;36703;48.154;17.126;2022-10-22T19:03:18;16.40;58.80
50738;DHT22;36703;48.154;17.126;2022-10-22T19:07:19;16.50;58.70
50738;DHT22;36703;48.154;17.126;2022-10-22T19:11:20;16.60;58.60
50738;DHT22;36703;48.154;17.126;2022-10-22T19:15:23;16.60;58.60
50738;DHT22;36703;48.154;17.126;2022-10-22T19:19:24;16.70;58.70
50738;DHT22;36703;48.154;17.126;2022-10-22T19:23:26;16.80;58.60
50738;DHT22;36703;48.154;17.126;2022-10-22T19:27:30;16.80;58.60
50738;DHT22;36703;48.154;17.126;2022-10-22T19:31:31;16.80;58.60
50738;DHT22;36703;48.154;17.126;2022-10-22T19:35:34;16.80;58.60
50738;DHT22;36703;48.154;17.126;2022-10-22T19:39:36;16.90;58.70
50738;DHT22;36703;48.154;17.126;2022-10-22T19:43:38;16.90;58.60
50738;DHT22;36703;48.154;17.126;2022-10-22T19:47:40;17.00;58.60
50738;DHT22;36703;48.154;17.126;2022-10-22T19:51:42;17.00;58.60
50738;DHT22;36703;48.154;17.126;2022-10-22T19:55:43;17.00;58.60
50738;DHT22;36703;48.154;17.126;2022-10-22T19:59:45;17.00;58.60
50738;DHT22;36703;48.154;17.126;2022-10-22T20:03:47;17.00;58.60
50738;DHT22;36703;48.154;17.126;2022-10-22T20:07:48;17.00;58.60
50738;DHT22;36703;48.154;17.126;2022-10-22T20:11:50;17.00;58.70
50738;DHT22;36703;48.154;17.126;2022-10-22T20:15:51;17.00;58.70
50738;DHT22;36703;48.154;17.126;2022-10-22T20:19:53;17.00;58.70
50738;DHT22;36703;48.154;17.126;2022-10-22T20:23:56;17.00;58.70
50738;DHT22;36703;48.154;17.126;2022-10-22T20:27:58;17.10;58.70
50738;DHT22;36703;48.154;17.126;2022-10-22T20:32:00;17.10;58.60
50738;DHT22;36703;48.154;17.126;2022-10-22T20:36:03;17.10;58.60
50738;DHT22;36703;48.154;17.126;2022-10-22T20:40:06;17.10;58.60
50738;DHT22;36703;48.154;17.126;2022-10-22T20:44:12;17.10;58.60
50738;DHT22;36703;48.154;17.126;2022-10-22T20:48:15;17.10;58.60
50738;DHT22;36703;48.154;17.126;2022-10-22T20:52:16;17.10;59.30
50738;DHT22;36703;48.154;17.126;2022-10-22T20:56:17;17.10;58.70
50738;DHT22;36703;48.154;17.126;2022-10-22T21:00:19;17.10;58.60
50738;DHT22;36703;48.154;17.126;2022-10-22T21:04:21;17.10;59.20
50738;DHT22;36703;48.154;17.126;2022-10-22T21:08:22;17.10;58.60
50738;DHT22;36703;48.154;17.126;2022-10-22T21:12:23;17.10;58.70
50738;DHT22;36703;48.154;17.126;2022-10-22T21:16:25;17.10;58.70
50738;DHT22;36703;48.154;17.126;2022-10-22T21:20:26;17.10;58.70
50738;DHT22;36703;48.154;17.126;2022-10-22T21:24:28;17.10;58.80
50738;DHT22;36703;48.154;17.126;2022-10-22T21:28:31;17.10;58.80
50738;DHT22;36703;48.154;17.126;2022-10-22T21:32:35;17.10;58.80
50738;DHT22;36703;48.154;17.126;2022-10-22T21:36:39;17.10;58.80
50738;DHT22;36703;48.154;17.126;2022-10-22T21:51:34;17.20;58.70
50738;DHT22;36703;48.154;17.126;2022-10-22T22:13:13;17.20;58.70
50738;DHT22;36703;48.154;17.126;2022-10-22T22:23:18;17.20;58.40
50738;DHT22;36703;48.154;17.126;2022-10-22T22:44:46;17.20;58.50
50738;DHT22;36703;48.154;17.126;2022-10-22T22:48:48;17.20;58.60
50738;DHT22;36703;48.154;17.126;2022-10-22T22:52:50;17.30;58.60
50738;DHT22;36703;48.154;17.126;2022-10-22T22:56:52;17.30;58.60
